sensor_id;sensor_type;location;lat;lon;timestamp;temperature;humidity
22112;DHT22;11222;50.872;4.312;2023-07-28T00:01:40;18.20;99.90
22112;DHT22;11222;50.872;4.312;2023-07-28T00:04:06;18.30;99.90
22112;DHT22;11222;50.872;4.312;2023-07-28T00:06:33;18.30;99.90
22112;DHT22;11222;50.872;4.312;2023-07-28T00:08:58;18.30;99.90
22112;DHT22;11222;50.872;4.312;2023-07-28T00:11:24;18.30;99.90
22112;DHT22;11222;50.872;4.312;2023-07-28T00:13:50;18.30;99.90
22112;DHT22;11222;50.872;4.312;2023-07-28T00:16:16;18.30;99.90
22112;DHT22;11222;50.872;4.312;2023-07-28T00:18:41;18.30;99.90
22112;DHT22;11222;50.872;4.312;2023-07-28T00:21:07;18.30;99.90
22112;DHT22;11222;50.872;4.312;2023-07-28T00:23:32;18.30;99.90
22112;DHT22;11222;50.872;4.312;2023-07-28T00:25:58;18.30;99.90
22112;DHT22;11222;50.872;4.312;2023-07-28T00:28:24;18.30;99.90
22112;DHT22;11222;50.872;4.312;2023-07-28T00:30:50;18.30;99.90
22112;DHT22;11222;50.872;4.312;2023-07-28T00:33:16;18.30;99.90
22112;DHT22;11222;50.872;4.312;2023-07-28T00:35:41;18.30;99.90
22112;DHT22;11222;50.872;4.312;2023-07-28T00:38:07;18.40;99.90
22112;DHT22;11222;50.872;4.312;2023-07-28T00:40:33;18.30;99.90
22112;DHT22;11222;50.872;4.312;2023-07-28T00:42:58;18.30;99.90
22112;DHT22;11222;50.872;4.312;2023-07-28T00:45:24;18.30;99.90
22112;DHT22;11222;50.872;4.312;2023-07-28T00:47:50;18.20;99.90
22112;DHT22;11222;50.872;4.312;2023-07-28T00:50:16;18.30;99.90
22112;DHT22;11222;50.872;4.312;2023-07-28T00:52:42;18.30;99.90
22112;DHT22;11222;50.872;4.312;2023-07-28T00:55:08;18.30;99.90
22112;DHT22;11222;50.872;4.312;2023-07-28T00:57:34;18.30;99.90
22112;DHT22;11222;50.872;4.312;2023-07-28T01:00:00;18.20;99.90
22112;DHT22;11222;50.872;4.312;2023-07-28T01:02:26;18.30;99.90
22112;DHT22;11222;50.872;4.312;2023-07-28T01:04:52;18.20;99.90
22112;DHT22;11222;50.872;4.312;2023-07-28T01:12:15;18.30;99.90
22112;DHT22;11222;50.872;4.312;2023-07-28T01:14:42;18.30;99.90
22112;DHT22;11222;50.872;4.312;2023-07-28T01:17:08;18.30;99.90
22112;DHT22;11222;50.872;4.312;2023-07-28T01:19:34;18.30;99.90
22112;DHT22;11222;50.872;4.312;2023-07-28T01:25:06;18.30;99.90
22112;DHT22;11222;50.872;4.312;2023-07-28T01:27:35;18.30;99.90
22112;DHT22;11222;50.872;4.312;2023-07-28T01:30:03;18.30;99.90
22112;DHT22;11222;50.872;4.312;2023-07-28T01:32:28;18.30;99.90
22112;DHT22;11222;50.872;4.312;2023-07-28T01:34:54;18.30;99.90
22112;DHT22;11222;50.872;4.312;2023-07-28T01:37:20;18.30;99.90
22112;DHT22;11222;50.872;4.312;2023-07-28T01:39:45;18.30;99.90
22112;DHT22;11222;50.872;4.312;2023-07-28T01:42:11;18.30;99.90
22112;DHT22;11222;50.872;4.312;2023-07-28T01:44:36;18.30;99.90
22112;DHT22;11222;50.872;4.312;2023-07-28T01:47:02;18.30;99.90
22112;DHT22;11222;50.872;4.312;2023-07-28T01:49:28;18.30;99.90
22112;DHT22;11222;50.872;4.312;2023-07-28T01:51:53;18.30;99.90
22112;DHT22;11222;50.872;4.312;2023-07-28T01:54:19;18.30;99.90
22112;DHT22;11222;50.872;4.312;2023-07-28T01:56:45;18.30;99.90
22112;DHT22;11222;50.872;4.312;2023-07-28T01:59:10;18.30;99.90
22112;DHT22;11222;50.872;4.312;2023-07-28T02:01:36;18.30;99.90
22112;DHT22;11222;50.872;4.312;2023-07-28T02:04:02;18.30;99.90
22112;DHT22;11222;50.872;4.312;2023-07-28T02:06:27;18.40;99.90
22112;DHT22;11222;50.872;4.312;2023-07-28T02:08:53;18.40;99.90
22112;DHT22;11222;50.872;4.312;2023-07-28T02:11:19;18.40;99.90
22112;DHT22;11222;50.872;4.312;2023-07-28T02:13:44;18.40;99.90
22112;DHT22;11222;50.872;4.312;2023-07-28T02:16:10;18.40;99.90
22112;DHT22;11222;50.872;4.312;2023-07-28T02:18:35;18.40;99.90
22112;DHT22;11222;50.872;4.312;2023-07-28T02:21:01;18.40;99.90
22112;DHT22;11222;50.872;4.312;2023-07-28T02:23:27;18.40;99.90
22112;DHT22;11222;50.872;4.312;2023-07-28T02:25:52;18.40;99.90
22112;DHT22;11222;50.872;4.312;2023-07-28T02:28:18;18.40;99.90
22112;DHT22;11222;50.872;4.312;2023-07-28T02:30:43;18.40;99.90
22112;DHT22;11222;50.872;4.312;2023-07-28T02:33:09;18.40;99.90
22112;DHT22;11222;50.872;4.312;2023-07-28T02:35:35;18.40;99.90
22112;DHT22;11222;50.872;4.312;2023-07-28T02:38:01;18.40;99.90
22112;DHT22;11222;50.872;4.312;2023-07-28T02:40:27;18.40;99.90
22112;DHT22;11222;50.872;4.312;2023-07-28T02:42:53;18.40;99.90
22112;DHT22;11222;50.872;4.312;2023-07-28T02:45:19;18.40;99.90
22112;DHT22;11222;50.872;4.312;2023-07-28T02:47:45;18.40;99.90
22112;DHT22;11222;50.872;4.312;2023-07-28T02:50:11;18.40;99.90
22112;DHT22;11222;50.872;4.312;2023-07-28T02:52:36;18.40;99.90
22112;DHT22;11222;50.872;4.312;2023-07-28T02:55:02;18.40;99.90
22112;DHT22;11222;50.872;4.312;2023-07-28T02:57:27;18.40;99.90
22112;DHT22;11222;50.872;4.312;2023-07-28T02:59:53;18.40;99.90
22112;DHT22;11222;50.872;4.312;2023-07-28T03:02:19;18.40;99.90
22112;DHT22;11222;50.872;4.312;2023-07-28T03:04:44;18.40;99.90
22112;DHT22;11222;50.872;4.312;2023-07-28T03:07:10;18.50;99.90
22112;DHT22;11222;50.872;4.312;2023-07-28T03:09:36;18.40;99.90
22112;DHT22;11222;50.872;4.312;2023-07-28T03:12:01;18.40;99.90
22112;DHT22;11222;50.872;4.312;2023-07-28T03:14:28;18.40;99.90
22112;DHT22;11222;50.872;4.312;2023-07-28T03:16:54;18.40;99.90
22112;DHT22;11222;50.872;4.312;2023-07-28T03:19:20;18.40;99.90
22112;DHT22;11222;50.872;4.312;2023-07-28T03:21:46;18.40;99.90
22112;DHT22;11222;50.872;4.312;2023-07-28T03:24:12;18.40;99.90
22112;DHT22;11222;50.872;4.312;2023-07-28T03:26:38;18.40;99.90
22112;DHT22;11222;50.872;4.312;2023-07-28T03:29:04;18.40;99.90
22112;DHT22;11222;50.872;4.312;2023-07-28T03:31:29;18.40;99.90
22112;DHT22;11222;50.872;4.312;2023-07-28T03:33:55;18.50;99.90
22112;DHT22;11222;50.872;4.312;2023-07-28T03:36:21;18.50;99.90
22112;DHT22;11222;50.872;4.312;2023-07-28T03:38:47;18.50;99.90
22112;DHT22;11222;50.872;4.312;2023-07-28T03:41:13;18.40;99.90
22112;DHT22;11222;50.872;4.312;2023-07-28T03:43:39;18.50;99.90
22112;DHT22;11222;50.872;4.312;2023-07-28T03:46:05;18.50;99.90
22112;DHT22;11222;50.872;4.312;2023-07-28T03:48:31;18.50;99.90
22112;DHT22;11222;50.872;4.312;2023-07-28T03:50:56;18.50;99.90
22112;DHT22;11222;50.872;4.312;2023-07-28T03:53:22;18.60;99.90
22112;DHT22;11222;50.872;4.312;2023-07-28T03:55:48;18.50;99.90
22112;DHT22;11222;50.872;4.312;2023-07-28T03:58:14;18.50;99.90
22112;DHT22;11222;50.872;4.312;2023-07-28T04:00:39;18.50;99.90
22112;DHT22;11222;50.872;4.312;2023-07-28T04:03:05;18.60;99.90
22112;DHT22;11222;50.872;4.312;2023-07-28T04:05:30;18.50;99.90
22112;DHT22;11222;50.872;4.312;2023-07-28T04:07:56;18.60;99.90
22112;DHT22;11222;50.872;4.312;2023-07-28T04:10:22;18.60;99.90
22112;DHT22;11222;50.872;4.312;2023-07-28T04:12:48;18.50;99.90
22112;DHT22;11222;50.872;4.312;2023-07-28T04:15:14;18.60;99.90
22112;DHT22;11222;50.872;4.312;2023-07-28T04:17:40;18.50;99.90
22112;DHT22;11222;50.872;4.312;2023-07-28T04:20:06;18.60;99.90
22112;DHT22;11222;50.872;4.312;2023-07-28T04:22:31;18.50;99.90
22112;DHT22;11222;50.872;4.312;2023-07-28T04:24:57;18.60;99.90
22112;DHT22;11222;50.872;4.312;2023-07-28T04:27:23;18.60;99.90
22112;DHT22;11222;50.872;4.312;2023-07-28T04:29:48;18.60;99.90
22112;DHT22;11222;50.872;4.312;2023-07-28T04:32:14;18.60;99.90
22112;DHT22;11222;50.872;4.312;2023-07-28T04:34:40;18.60;99.90
22112;DHT22;11222;50.872;4.312;2023-07-28T04:37:05;18.60;99.90
22112;DHT22;11222;50.872;4.312;2023-07-28T04:39:31;18.60;99.90
22112;DHT22;11222;50.872;4.312;2023-07-28T04:41:56;18.70;99.90
22112;DHT22;11222;50.872;4.312;2023-07-28T04:44:22;18.70;99.90
22112;DHT22;11222;50.872;4.312;2023-07-28T04:46:48;18.70;99.90
22112;DHT22;11222;50.872;4.312;2023-07-28T04:49:14;18.70;99.90
22112;DHT22;11222;50.872;4.312;2023-07-28T04:51:39;18.70;99.90
22112;DHT22;11222;50.872;4.312;2023-07-28T04:54:05;18.60;99.90
22112;DHT22;11222;50.872;4.312;2023-07-28T04:56:31;18.70;99.90
22112;DHT22;11222;50.872;4.312;2023-07-28T04:58:56;18.70;99.90
22112;DHT22;11222;50.872;4.312;2023-07-28T05:01:25;18.70;99.90
22112;DHT22;11222;50.872;4.312;2023-07-28T05:03:51;18.70;99.90
22112;DHT22;11222;50.872;4.312;2023-07-28T05:06:17;18.80;99.90
22112;DHT22;11222;50.872;4.312;2023-07-28T05:08:43;18.70;99.90
22112;DHT22;11222;50.872;4.312;2023-07-28T05:11:09;18.70;99.90
22112;DHT22;11222;50.872;4.312;2023-07-28T05:13:34;18.80;99.90
22112;DHT22;11222;50.872;4.312;2023-07-28T05:16:00;18.80;99.90
22112;DHT22;11222;50.872;4.312;2023-07-28T05:18:25;18.70;99.90
22112;DHT22;11222;50.872;4.312;2023-07-28T05:20:51;18.80;99.90
22112;DHT22;11222;50.872;4.312;2023-07-28T05:23:17;18.80;99.90
22112;DHT22;11222;50.872;4.312;2023-07-28T05:25:42;18.80;99.90
22112;DHT22;11222;50.872;4.312;2023-07-28T05:28:08;18.80;99.90
22112;DHT22;11222;50.872;4.312;2023-07-28T05:30:33;18.70;99.90
22112;DHT22;11222;50.872;4.312;2023-07-28T05:33:00;18.80;99.90
22112;DHT22;11222;50.872;4.312;2023-07-28T05:35:26;18.80;99.90
22112;DHT22;11222;50.872;4.312;2023-07-28T05:37:53;18.90;99.90
22112;DHT22;11222;50.872;4.312;2023-07-28T05:40:20;18.90;99.90
22112;DHT22;11222;50.872;4.312;2023-07-28T05:42:45;18.90;99.90
22112;DHT22;11222;50.872;4.312;2023-07-28T05:45:11;18.90;99.90
22112;DHT22;11222;50.872;4.312;2023-07-28T05:47:37;19.00;99.90
22112;DHT22;11222;50.872;4.312;2023-07-28T05:50:03;19.10;99.90
22112;DHT22;11222;50.872;4.312;2023-07-28T05:52:29;19.10;99.90
22112;DHT22;11222;50.872;4.312;2023-07-28T05:54:55;19.10;99.90
22112;DHT22;11222;50.872;4.312;2023-07-28T05:57:20;19.10;99.90
22112;DHT22;11222;50.872;4.312;2023-07-28T05:59:46;19.00;99.90
22112;DHT22;11222;50.872;4.312;2023-07-28T06:02:12;19.10;99.90
22112;DHT22;11222;50.872;4.312;2023-07-28T06:04:37;19.10;99.90
22112;DHT22;11222;50.872;4.312;2023-07-28T06:07:03;19.10;99.90
22112;DHT22;11222;50.872;4.312;2023-07-28T06:09:29;19.10;99.90
22112;DHT22;11222;50.872;4.312;2023-07-28T06:11:54;18.90;99.90
22112;DHT22;11222;50.872;4.312;2023-07-28T06:14:20;18.90;99.90
22112;DHT22;11222;50.872;4.312;2023-07-28T06:16:46;18.70;99.90
22112;DHT22;11222;50.872;4.312;2023-07-28T06:19:11;18.70;99.90
22112;DHT22;11222;50.872;4.312;2023-07-28T06:21:37;18.80;99.90
22112;DHT22;11222;50.872;4.312;2023-07-28T06:24:02;18.90;99.90
22112;DHT22;11222;50.872;4.312;2023-07-28T06:26:28;19.00;99.90
22112;DHT22;11222;50.872;4.312;2023-07-28T06:28:54;19.10;99.90
22112;DHT22;11222;50.872;4.312;2023-07-28T06:31:19;19.20;99.90
22112;DHT22;11222;50.872;4.312;2023-07-28T06:33:47;19.20;99.90
22112;DHT22;11222;50.872;4.312;2023-07-28T06:36:13;19.30;99.90
22112;DHT22;11222;50.872;4.312;2023-07-28T06:38:38;19.40;99.90
22112;DHT22;11222;50.872;4.312;2023-07-28T06:41:04;19.40;99.90
22112;DHT22;11222;50.872;4.312;2023-07-28T06:43:30;19.50;99.90
22112;DHT22;11222;50.872;4.312;2023-07-28T06:45:56;19.60;99.90
22112;DHT22;11222;50.872;4.312;2023-07-28T06:48:21;19.70;99.90
22112;DHT22;11222;50.872;4.312;2023-07-28T06:50:47;19.80;99.90
22112;DHT22;11222;50.872;4.312;2023-07-28T06:53:12;20.10;99.90
22112;DHT22;11222;50.872;4.312;2023-07-28T06:55:38;20.10;99.90
22112;DHT22;11222;50.872;4.312;2023-07-28T06:58:05;20.20;99.90
22112;DHT22;11222;50.872;4.312;2023-07-28T07:00:31;20.30;99.90
22112;DHT22;11222;50.872;4.312;2023-07-28T07:02:57;20.50;99.90
22112;DHT22;11222;50.872;4.312;2023-07-28T07:05:22;20.40;99.90
22112;DHT22;11222;50.872;4.312;2023-07-28T07:07:49;20.40;99.90
22112;DHT22;11222;50.872;4.312;2023-07-28T07:10:15;20.40;99.90
22112;DHT22;11222;50.872;4.312;2023-07-28T07:12:40;20.50;99.90
22112;DHT22;11222;50.872;4.312;2023-07-28T07:15:06;20.50;99.90
22112;DHT22;11222;50.872;4.312;2023-07-28T07:17:32;20.70;99.90
22112;DHT22;11222;50.872;4.312;2023-07-28T07:19:58;20.90;99.90
22112;DHT22;11222;50.872;4.312;2023-07-28T07:22:24;20.90;99.90
22112;DHT22;11222;50.872;4.312;2023-07-28T07:24:50;21.10;99.90
22112;DHT22;11222;50.872;4.312;2023-07-28T07:27:16;21.30;99.90
22112;DHT22;11222;50.872;4.312;2023-07-28T07:29:41;21.40;99.90
22112;DHT22;11222;50.872;4.312;2023-07-28T07:32:07;21.00;99.90
22112;DHT22;11222;50.872;4.312;2023-07-28T07:34:34;20.80;99.90
22112;DHT22;11222;50.872;4.312;2023-07-28T07:36:59;20.60;99.90
22112;DHT22;11222;50.872;4.312;2023-07-28T07:39:25;20.80;99.90
22112;DHT22;11222;50.872;4.312;2023-07-28T07:41:51;21.00;99.90
22112;DHT22;11222;50.872;4.312;2023-07-28T07:44:16;21.10;99.90
22112;DHT22;11222;50.872;4.312;2023-07-28T07:46:42;21.40;99.90
22112;DHT22;11222;50.872;4.312;2023-07-28T07:49:08;21.00;99.90
22112;DHT22;11222;50.872;4.312;2023-07-28T07:51:34;20.90;99.90
22112;DHT22;11222;50.872;4.312;2023-07-28T07:54:00;20.90;99.90
22112;DHT22;11222;50.872;4.312;2023-07-28T07:56:27;20.70;99.90
22112;DHT22;11222;50.872;4.312;2023-07-28T07:58:53;20.50;99.90
22112;DHT22;11222;50.872;4.312;2023-07-28T08:01:18;20.50;99.90
22112;DHT22;11222;50.872;4.312;2023-07-28T08:03:44;20.50;99.90
22112;DHT22;11222;50.872;4.312;2023-07-28T08:06:09;20.70;99.90
22112;DHT22;11222;50.872;4.312;2023-07-28T08:08:37;20.90;99.90
22112;DHT22;11222;50.872;4.312;2023-07-28T08:11:03;20.90;99.90
22112;DHT22;11222;50.872;4.312;2023-07-28T08:13:28;21.10;99.90
22112;DHT22;11222;50.872;4.312;2023-07-28T08:15:54;21.40;99.90
22112;DHT22;11222;50.872;4.312;2023-07-28T08:18:20;21.40;99.90
22112;DHT22;11222;50.872;4.312;2023-07-28T08:20:45;21.30;99.90
22112;DHT22;11222;50.872;4.312;2023-07-28T08:23:11;21.30;99.90
22112;DHT22;11222;50.872;4.312;2023-07-28T08:25:37;21.30;99.90
22112;DHT22;11222;50.872;4.312;2023-07-28T08:28:03;21.30;99.90
22112;DHT22;11222;50.872;4.312;2023-07-28T08:30:29;21.30;99.90
22112;DHT22;11222;50.872;4.312;2023-07-28T08:32:55;21.60;99.90
22112;DHT22;11222;50.872;4.312;2023-07-28T08:35:21;21.50;99.90
22112;DHT22;11222;50.872;4.312;2023-07-28T08:37:46;21.30;99.90
22112;DHT22;11222;50.872;4.312;2023-07-28T08:40:12;21.40;99.90
22112;DHT22;11222;50.872;4.312;2023-07-28T08:42:39;21.70;99.90
22112;DHT22;11222;50.872;4.312;2023-07-28T08:45:06;21.80;99.90
22112;DHT22;11222;50.872;4.312;2023-07-28T08:47:32;21.80;99.90
22112;DHT22;11222;50.872;4.312;2023-07-28T08:49:58;21.80;99.90
22112;DHT22;11222;50.872;4.312;2023-07-28T08:52:24;21.70;99.90
22112;DHT22;11222;50.872;4.312;2023-07-28T08:54:50;21.70;99.90
22112;DHT22;11222;50.872;4.312;2023-07-28T08:57:15;21.70;99.90
22112;DHT22;11222;50.872;4.312;2023-07-28T08:59:41;21.60;99.90
22112;DHT22;11222;50.872;4.312;2023-07-28T09:02:14;21.50;99.90
22112;DHT22;11222;50.872;4.312;2023-07-28T09:04:42;21.40;99.90
22112;DHT22;11222;50.872;4.312;2023-07-28T09:07:08;21.20;99.90
22112;DHT22;11222;50.872;4.312;2023-07-28T09:09:35;21.10;99.90
22112;DHT22;11222;50.872;4.312;2023-07-28T09:12:02;21.10;99.90
22112;DHT22;11222;50.872;4.312;2023-07-28T09:14:29;21.20;99.90
22112;DHT22;11222;50.872;4.312;2023-07-28T09:16:55;21.20;99.90
22112;DHT22;11222;50.872;4.312;2023-07-28T09:19:21;21.20;99.90
22112;DHT22;11222;50.872;4.312;2023-07-28T09:21:58;21.10;99.90
22112;DHT22;11222;50.872;4.312;2023-07-28T09:24:33;20.90;99.90
22112;DHT22;11222;50.872;4.312;2023-07-28T09:27:00;21.10;99.90
22112;DHT22;11222;50.872;4.312;2023-07-28T09:29:26;21.00;99.90
22112;DHT22;11222;50.872;4.312;2023-07-28T09:31:53;21.10;99.90
22112;DHT22;11222;50.872;4.312;2023-07-28T09:34:26;21.30;99.90
22112;DHT22;11222;50.872;4.312;2023-07-28T09:36:56;21.40;99.90
22112;DHT22;11222;50.872;4.312;2023-07-28T09:39:22;21.60;99.90
22112;DHT22;11222;50.872;4.312;2023-07-28T09:41:48;21.80;99.90
22112;DHT22;11222;50.872;4.312;2023-07-28T09:44:15;22.30;99.90
22112;DHT22;11222;50.872;4.312;2023-07-28T09:46:52;22.40;99.90
22112;DHT22;11222;50.872;4.312;2023-07-28T09:49:22;22.40;99.90
22112;DHT22;11222;50.872;4.312;2023-07-28T09:51:54;22.40;99.90
22112;DHT22;11222;50.872;4.312;2023-07-28T09:54:29;22.40;99.90
22112;DHT22;11222;50.872;4.312;2023-07-28T09:56:59;22.80;99.90
22112;DHT22;11222;50.872;4.312;2023-07-28T09:59:38;22.50;99.90
22112;DHT22;11222;50.872;4.312;2023-07-28T10:02:05;22.00;99.90
22112;DHT22;11222;50.872;4.312;2023-07-28T10:04:32;21.70;99.90
22112;DHT22;11222;50.872;4.312;2023-07-28T10:06:58;21.30;99.90
22112;DHT22;11222;50.872;4.312;2023-07-28T10:09:26;21.50;99.90
22112;DHT22;11222;50.872;4.312;2023-07-28T10:11:53;22.30;99.90
22112;DHT22;11222;50.872;4.312;2023-07-28T10:14:29;22.90;99.90
22112;DHT22;11222;50.872;4.312;2023-07-28T10:16:57;23.70;99.90
22112;DHT22;11222;50.872;4.312;2023-07-28T10:19:26;24.10;99.90
22112;DHT22;11222;50.872;4.312;2023-07-28T10:22:02;23.90;99.90
22112;DHT22;11222;50.872;4.312;2023-07-28T10:24:53;23.40;99.90
22112;DHT22;11222;50.872;4.312;2023-07-28T10:27:35;22.70;99.90
22112;DHT22;11222;50.872;4.312;2023-07-28T10:30:03;22.40;99.90
22112;DHT22;11222;50.872;4.312;2023-07-28T10:32:40;22.30;99.90
22112;DHT22;11222;50.872;4.312;2023-07-28T10:37:39;22.90;99.90
22112;DHT22;11222;50.872;4.312;2023-07-28T10:42:54;22.80;99.90
22112;DHT22;11222;50.872;4.312;2023-07-28T10:45:22;22.80;99.90
22112;DHT22;11222;50.872;4.312;2023-07-28T10:47:48;23.00;99.90
22112;DHT22;11222;50.872;4.312;2023-07-28T10:50:15;23.10;99.90
22112;DHT22;11222;50.872;4.312;2023-07-28T10:52:42;23.30;99.90
22112;DHT22;11222;50.872;4.312;2023-07-28T10:55:18;23.10;99.90
22112;DHT22;11222;50.872;4.312;2023-07-28T10:57:47;23.10;99.90
22112;DHT22;11222;50.872;4.312;2023-07-28T11:00:15;23.10;99.90
22112;DHT22;11222;50.872;4.312;2023-07-28T11:02:45;22.90;99.90
22112;DHT22;11222;50.872;4.312;2023-07-28T11:05:13;22.90;99.90
22112;DHT22;11222;50.872;4.312;2023-07-28T11:07:43;22.90;99.90
22112;DHT22;11222;50.872;4.312;2023-07-28T11:10:13;22.90;99.90
22112;DHT22;11222;50.872;4.312;2023-07-28T11:12:43;23.00;99.90
22112;DHT22;11222;50.872;4.312;2023-07-28T11:15:10;23.20;99.90
22112;DHT22;11222;50.872;4.312;2023-07-28T11:17:41;23.10;99.90
22112;DHT22;11222;50.872;4.312;2023-07-28T11:25:21;23.80;99.90
22112;DHT22;11222;50.872;4.312;2023-07-28T11:27:47;23.90;99.90
22112;DHT22;11222;50.872;4.312;2023-07-28T11:30:15;23.90;99.90
22112;DHT22;11222;50.872;4.312;2023-07-28T11:32:44;24.10;99.90
22112;DHT22;11222;50.872;4.312;2023-07-28T11:35:12;24.40;99.90
22112;DHT22;11222;50.872;4.312;2023-07-28T11:37:39;24.40;99.90
22112;DHT22;11222;50.872;4.312;2023-07-28T11:40:06;24.20;99.90
22112;DHT22;11222;50.872;4.312;2023-07-28T11:42:49;23.90;99.90
22112;DHT22;11222;50.872;4.312;2023-07-28T11:45:17;23.70;99.90
22112;DHT22;11222;50.872;4.312;2023-07-28T11:48:02;23.50;99.90
22112;DHT22;11222;50.872;4.312;2023-07-28T11:50:30;23.30;99.90
22112;DHT22;11222;50.872;4.312;2023-07-28T11:52:59;23.20;99.90
22112;DHT22;11222;50.872;4.312;2023-07-28T11:55:24;23.30;99.90
22112;DHT22;11222;50.872;4.312;2023-07-28T11:57:52;24.50;99.90
22112;DHT22;11222;50.872;4.312;2023-07-28T12:00:18;25.00;99.90
22112;DHT22;11222;50.872;4.312;2023-07-28T12:03:06;25.00;99.90
22112;DHT22;11222;50.872;4.312;2023-07-28T12:05:35;25.50;99.90
22112;DHT22;11222;50.872;4.312;2023-07-28T12:08:02;25.40;99.90
22112;DHT22;11222;50.872;4.312;2023-07-28T12:10:31;25.10;99.90
22112;DHT22;11222;50.872;4.312;2023-07-28T12:12:57;25.60;99.90
22112;DHT22;11222;50.872;4.312;2023-07-28T12:15:29;25.80;99.90
22112;DHT22;11222;50.872;4.312;2023-07-28T12:20:48;25.90;99.90
22112;DHT22;11222;50.872;4.312;2023-07-28T12:23:19;25.60;99.90
22112;DHT22;11222;50.872;4.312;2023-07-28T12:25:46;25.30;99.90
22112;DHT22;11222;50.872;4.312;2023-07-28T12:28:12;25.10;99.90
22112;DHT22;11222;50.872;4.312;2023-07-28T12:30:38;25.00;99.90
22112;DHT22;11222;50.872;4.312;2023-07-28T12:33:04;25.10;99.90
22112;DHT22;11222;50.872;4.312;2023-07-28T12:35:31;25.00;99.90
22112;DHT22;11222;50.872;4.312;2023-07-28T12:37:59;25.10;99.90
22112;DHT22;11222;50.872;4.312;2023-07-28T12:40:26;25.40;99.90
22112;DHT22;11222;50.872;4.312;2023-07-28T12:42:53;25.30;99.90
22112;DHT22;11222;50.872;4.312;2023-07-28T12:45:20;25.00;99.90
22112;DHT22;11222;50.872;4.312;2023-07-28T12:47:46;25.00;99.90
22112;DHT22;11222;50.872;4.312;2023-07-28T12:50:12;25.10;99.90
22112;DHT22;11222;50.872;4.312;2023-07-28T12:52:38;24.90;99.90
22112;DHT22;11222;50.872;4.312;2023-07-28T12:55:04;24.60;99.90
22112;DHT22;11222;50.872;4.312;2023-07-28T12:57:31;24.70;99.90
22112;DHT22;11222;50.872;4.312;2023-07-28T12:59:57;24.70;99.90
22112;DHT22;11222;50.872;4.312;2023-07-28T13:02:23;24.70;99.90
22112;DHT22;11222;50.872;4.312;2023-07-28T13:04:48;24.80;99.90
22112;DHT22;11222;50.872;4.312;2023-07-28T13:07:14;24.60;99.90
22112;DHT22;11222;50.872;4.312;2023-07-28T13:09:40;24.70;99.90
22112;DHT22;11222;50.872;4.312;2023-07-28T13:12:07;25.10;99.90
22112;DHT22;11222;50.872;4.312;2023-07-28T13:14:33;25.10;99.90
22112;DHT22;11222;50.872;4.312;2023-07-28T13:16:59;24.80;99.90
22112;DHT22;11222;50.872;4.312;2023-07-28T13:19:25;24.70;99.90
22112;DHT22;11222;50.872;4.312;2023-07-28T13:21:51;24.60;99.90
22112;DHT22;11222;50.872;4.312;2023-07-28T13:24:16;24.40;99.90
22112;DHT22;11222;50.872;4.312;2023-07-28T13:26:42;24.30;99.90
22112;DHT22;11222;50.872;4.312;2023-07-28T13:29:08;24.30;99.90
22112;DHT22;11222;50.872;4.312;2023-07-28T13:31:33;24.20;99.90
22112;DHT22;11222;50.872;4.312;2023-07-28T13:33:59;24.40;99.90
22112;DHT22;11222;50.872;4.312;2023-07-28T13:36:25;24.90;99.90
22112;DHT22;11222;50.872;4.312;2023-07-28T13:38:50;24.90;99.90
22112;DHT22;11222;50.872;4.312;2023-07-28T13:41:16;25.00;99.90
22112;DHT22;11222;50.872;4.312;2023-07-28T13:43:42;25.00;99.90
22112;DHT22;11222;50.872;4.312;2023-07-28T13:46:08;25.00;99.90
22112;DHT22;11222;50.872;4.312;2023-07-28T13:48:34;24.70;99.90
22112;DHT22;11222;50.872;4.312;2023-07-28T13:51:02;25.00;99.90
22112;DHT22;11222;50.872;4.312;2023-07-28T13:53:27;25.00;99.90
22112;DHT22;11222;50.872;4.312;2023-07-28T13:55:54;24.80;99.90
22112;DHT22;11222;50.872;4.312;2023-07-28T13:58:21;24.60;99.90
22112;DHT22;11222;50.872;4.312;2023-07-28T14:00:47;24.50;99.90
22112;DHT22;11222;50.872;4.312;2023-07-28T14:03:12;24.20;99.90
22112;DHT22;11222;50.872;4.312;2023-07-28T14:05:39;24.10;99.90
22112;DHT22;11222;50.872;4.312;2023-07-28T14:08:05;24.10;99.90
22112;DHT22;11222;50.872;4.312;2023-07-28T14:10:31;24.10;99.90
22112;DHT22;11222;50.872;4.312;2023-07-28T14:12:58;24.00;99.90
22112;DHT22;11222;50.872;4.312;2023-07-28T14:15:23;24.10;99.90
22112;DHT22;11222;50.872;4.312;2023-07-28T14:17:49;24.20;99.90
22112;DHT22;11222;50.872;4.312;2023-07-28T14:20:15;24.30;99.90
22112;DHT22;11222;50.872;4.312;2023-07-28T14:22:41;24.30;99.90
22112;DHT22;11222;50.872;4.312;2023-07-28T14:25:07;24.50;99.90
22112;DHT22;11222;50.872;4.312;2023-07-28T14:27:32;24.90;99.90
22112;DHT22;11222;50.872;4.312;2023-07-28T14:29:58;25.10;99.90
22112;DHT22;11222;50.872;4.312;2023-07-28T14:32:24;25.00;99.90
22112;DHT22;11222;50.872;4.312;2023-07-28T14:34:49;25.30;99.90
22112;DHT22;11222;50.872;4.312;2023-07-28T14:37:15;25.30;99.90
22112;DHT22;11222;50.872;4.312;2023-07-28T14:39:41;25.20;99.90
22112;DHT22;11222;50.872;4.312;2023-07-28T14:42:06;25.00;99.90
22112;DHT22;11222;50.872;4.312;2023-07-28T14:44:32;25.00;99.90
22112;DHT22;11222;50.872;4.312;2023-07-28T14:46:58;24.80;99.90
22112;DHT22;11222;50.872;4.312;2023-07-28T14:49:23;24.80;99.90
22112;DHT22;11222;50.872;4.312;2023-07-28T14:51:55;24.80;99.90
22112;DHT22;11222;50.872;4.312;2023-07-28T14:54:21;24.90;99.90
22112;DHT22;11222;50.872;4.312;2023-07-28T14:56:47;25.10;99.90
22112;DHT22;11222;50.872;4.312;2023-07-28T14:59:12;25.20;99.90
22112;DHT22;11222;50.872;4.312;2023-07-28T15:01:38;25.00;99.90
22112;DHT22;11222;50.872;4.312;2023-07-28T15:04:04;24.90;99.90
22112;DHT22;11222;50.872;4.312;2023-07-28T15:06:30;25.00;99.90
22112;DHT22;11222;50.872;4.312;2023-07-28T15:08:56;25.00;99.90
22112;DHT22;11222;50.872;4.312;2023-07-28T15:11:22;25.00;99.90
22112;DHT22;11222;50.872;4.312;2023-07-28T15:13:47;24.90;99.90
22112;DHT22;11222;50.872;4.312;2023-07-28T15:16:13;24.90;99.90
22112;DHT22;11222;50.872;4.312;2023-07-28T15:18:40;25.00;99.90
22112;DHT22;11222;50.872;4.312;2023-07-28T15:21:06;25.20;99.90
22112;DHT22;11222;50.872;4.312;2023-07-28T15:23:31;25.30;99.90
22112;DHT22;11222;50.872;4.312;2023-07-28T15:25:57;25.30;99.90
22112;DHT22;11222;50.872;4.312;2023-07-28T15:28:23;25.30;99.90
22112;DHT22;11222;50.872;4.312;2023-07-28T15:30:49;25.10;99.90
22112;DHT22;11222;50.872;4.312;2023-07-28T15:33:20;25.00;99.90
22112;DHT22;11222;50.872;4.312;2023-07-28T15:35:47;25.10;99.90
22112;DHT22;11222;50.872;4.312;2023-07-28T15:38:13;25.20;99.90
22112;DHT22;11222;50.872;4.312;2023-07-28T15:40:39;25.30;99.90
22112;DHT22;11222;50.872;4.312;2023-07-28T15:43:05;25.60;99.90
22112;DHT22;11222;50.872;4.312;2023-07-28T15:45:31;25.90;99.90
22112;DHT22;11222;50.872;4.312;2023-07-28T15:47:57;25.80;99.90